sensor_id;sensor_type;location;lat;lon;timestamp;P1;durP1;ratioP1;P2;durP2;ratioP2
54143;SDS011;40050;47.324;18.792;2022-12-29T14:42:13;45.63;;;28.47;;
54143;SDS011;40050;47.324;18.792;2022-12-29T14:44:22;44.98;;;25.82;;
54143;SDS011;40050;47.324;18.792;2022-12-29T14:46:25;43.75;;;25.62;;
54143;SDS011;40050;47.324;18.792;2022-12-29T14:48:44;42.85;;;24.97;;
54143;SDS011;40050;47.324;18.792;2022-12-29T14:50:55;40.75;;;23.69;;
54143;SDS011;40050;47.324;18.792;2022-12-29T14:53:00;43.85;;;25.68;;
54143;SDS011;40050;47.324;18.792;2022-12-29T14:57:36;47.76;;;25.19;;
54143;SDS011;40050;47.324;18.792;2022-12-29T14:59:22;51.50;;;26.76;;
54143;SDS011;40050;47.324;18.792;2022-12-29T15:01:28;50.00;;;26.67;;
54143;SDS011;40050;47.324;18.792;2022-12-29T15:03:38;52.06;;;27.46;;
54143;SDS011;40050;47.324;18.792;2022-12-29T15:05:36;51.19;;;27.75;;
54143;SDS011;40050;47.324;18.792;2022-12-29T15:07:39;48.93;;;25.97;;
54143;SDS011;40050;47.324;18.792;2022-12-29T15:10:06;52.10;;;26.66;;
54143;SDS011;40050;47.324;18.792;2022-12-29T15:12:33;53.59;;;27.35;;
54143;SDS011;40050;47.324;18.792;2022-12-29T15:14:33;49.21;;;25.48;;
54143;SDS011;40050;47.324;18.792;2022-12-29T15:16:30;49.50;;;26.17;;
54143;SDS011;40050;47.324;18.792;2022-12-29T15:18:25;48.36;;;26.36;;
54143;SDS011;40050;47.324;18.792;2022-12-29T15:20:27;54.03;;;27.15;;
54143;SDS011;40050;47.324;18.792;2022-12-29T15:22:34;55.85;;;28.72;;
54143;SDS011;40050;47.324;18.792;2022-12-29T15:24:40;57.94;;;28.51;;
54143;SDS011;40050;47.324;18.792;2022-12-29T15:26:47;49.82;;;27.33;;
54143;SDS011;40050;47.324;18.792;2022-12-29T15:28:46;55.12;;;29.30;;
54143;SDS011;40050;47.324;18.792;2022-12-29T15:30:54;54.15;;;27.81;;
54143;SDS011;40050;47.324;18.792;2022-12-29T15:33:17;55.17;;;27.81;;
54143;SDS011;40050;47.324;18.792;2022-12-29T15:35:34;49.74;;;25.84;;
54143;SDS011;40050;47.324;18.792;2022-12-29T15:37:17;48.99;;;26.53;;
54143;SDS011;40050;47.324;18.792;2022-12-29T15:39:28;48.16;;;26.53;;
54143;SDS011;40050;47.324;18.792;2022-12-29T15:41:39;49.23;;;26.32;;
54143;SDS011;40050;47.324;18.792;2022-12-29T15:44:14;50.50;;;26.61;;
54143;SDS011;40050;47.324;18.792;2022-12-29T15:45:50;52.34;;;27.10;;
54143;SDS011;40050;47.324;18.792;2022-12-29T15:47:58;50.10;;;27.40;;
54143;SDS011;40050;47.324;18.792;2022-12-29T15:52:22;46.80;;;26.11;;
54143;SDS011;40050;47.324;18.792;2022-12-29T15:54:20;51.35;;;26.90;;
54143;SDS011;40050;47.324;18.792;2022-12-29T15:56:23;47.04;;;25.71;;
54143;SDS011;40050;47.324;18.792;2022-12-29T15:58:52;50.36;;;27.38;;
54143;SDS011;40050;47.324;18.792;2022-12-29T16:00:56;50.12;;;26.58;;
54143;SDS011;40050;47.324;18.792;2022-12-29T16:03:06;45.46;;;26.38;;
54143;SDS011;40050;47.324;18.792;2022-12-29T16:05:09;49.36;;;27.17;;
54143;SDS011;40050;47.324;18.792;2022-12-29T16:07:05;51.67;;;26.97;;
54143;SDS011;40050;47.324;18.792;2022-12-29T16:09:18;50.19;;;27.55;;
54143;SDS011;40050;47.324;18.792;2022-12-29T16:11:20;55.91;;;29.41;;
54143;SDS011;40050;47.324;18.792;2022-12-29T16:13:22;63.91;;;32.36;;
54143;SDS011;40050;47.324;18.792;2022-12-29T16:15:16;52.35;;;30.19;;
54143;SDS011;40050;47.324;18.792;2022-12-29T16:17:20;85.18;;;38.76;;
54143;SDS011;40050;47.324;18.792;2022-12-29T16:19:28;88.42;;;40.77;;
54143;SDS011;40050;47.324;18.792;2022-12-29T16:21:26;66.07;;;32.99;;
54143;SDS011;40050;47.324;18.792;2022-12-29T16:23:26;62.05;;;32.21;;
54143;SDS011;40050;47.324;18.792;2022-12-29T16:25:35;65.33;;;34.04;;
54143;SDS011;40050;47.324;18.792;2022-12-29T16:27:43;47.45;;;26.68;;
54143;SDS011;40050;47.324;18.792;2022-12-29T16:29:44;48.51;;;26.46;;
54143;SDS011;40050;47.324;18.792;2022-12-29T16:31:56;50.03;;;27.14;;
54143;SDS011;40050;47.324;18.792;2022-12-29T16:34:10;49.18;;;26.65;;
54143;SDS011;40050;47.324;18.792;2022-12-29T16:36:39;48.62;;;27.04;;
54143;SDS011;40050;47.324;18.792;2022-12-29T16:38:20;47.91;;;26.65;;
54143;SDS011;40050;47.324;18.792;2022-12-29T16:40:23;49.42;;;27.25;;
54143;SDS011;40050;47.324;18.792;2022-12-29T16:42:34;49.66;;;26.18;;
54143;SDS011;40050;47.324;18.792;2022-12-29T16:44:34;48.42;;;26.87;;
54143;SDS011;40050;47.324;18.792;2022-12-29T16:47:02;47.36;;;25.91;;
54143;SDS011;40050;47.324;18.792;2022-12-29T16:48:53;52.95;;;27.69;;
54143;SDS011;40050;47.324;18.792;2022-12-29T16:51:04;52.75;;;27.89;;
54143;SDS011;40050;47.324;18.792;2022-12-29T16:53:04;51.21;;;27.58;;
54143;SDS011;40050;47.324;18.792;2022-12-29T16:55:14;49.80;;;27.67;;
54143;SDS011;40050;47.324;18.792;2022-12-29T16:57:08;48.99;;;27.38;;
54143;SDS011;40050;47.324;18.792;2022-12-29T16:59:19;50.91;;;27.28;;
54143;SDS011;40050;47.324;18.792;2022-12-29T17:01:10;48.85;;;28.17;;
54143;SDS011;40050;47.324;18.792;2022-12-29T17:03:12;53.12;;;28.58;;
54143;SDS011;40050;47.324;18.792;2022-12-29T17:05:13;52.72;;;28.47;;
54143;SDS011;40050;47.324;18.792;2022-12-29T17:07:18;52.28;;;29.07;;
54143;SDS011;40050;47.324;18.792;2022-12-29T17:09:25;53.07;;;29.06;;
54143;SDS011;40050;47.324;18.792;2022-12-29T17:11:30;56.63;;;29.84;;
54143;SDS011;40050;47.324;18.792;2022-12-29T17:13:19;53.62;;;29.45;;
54143;SDS011;40050;47.324;18.792;2022-12-29T17:15:26;48.88;;;28.57;;
54143;SDS011;40050;47.324;18.792;2022-12-29T17:19:35;54.14;;;28.56;;
54143;SDS011;40050;47.324;18.792;2022-12-29T17:21:32;55.03;;;28.85;;
54143;SDS011;40050;47.324;18.792;2022-12-29T17:23:44;54.15;;;27.86;;
54143;SDS011;40050;47.324;18.792;2022-12-29T17:25:46;51.12;;;27.47;;
54143;SDS011;40050;47.324;18.792;2022-12-29T17:27:53;58.55;;;29.12;;
54143;SDS011;40050;47.324;18.792;2022-12-29T17:30:03;53.78;;;28.33;;
54143;SDS011;40050;47.324;18.792;2022-12-29T17:32:03;55.45;;;27.73;;
54143;SDS011;40050;47.324;18.792;2022-12-29T17:34:06;52.31;;;28.12;;
54143;SDS011;40050;47.324;18.792;2022-12-29T17:36:10;53.85;;;29.02;;
54143;SDS011;40050;47.324;18.792;2022-12-29T17:38:30;57.03;;;29.60;;
54143;SDS011;40050;47.324;18.792;2022-12-29T17:40:12;55.94;;;29.68;;
54143;SDS011;40050;47.324;18.792;2022-12-29T17:42:10;56.01;;;29.97;;
54143;SDS011;40050;47.324;18.792;2022-12-29T17:44:22;50.09;;;27.04;;
54143;SDS011;40050;47.324;18.792;2022-12-29T17:46:24;55.53;;;28.21;;
54143;SDS011;40050;47.324;18.792;2022-12-29T17:48:25;57.21;;;29.19;;
54143;SDS011;40050;47.324;18.792;2022-12-29T17:50:35;55.31;;;29.57;;
54143;SDS011;40050;47.324;18.792;2022-12-29T17:52:40;59.04;;;30.74;;
54143;SDS011;40050;47.324;18.792;2022-12-29T17:54:51;58.22;;;29.77;;
54143;SDS011;40050;47.324;18.792;2022-12-29T17:56:52;53.89;;;29.79;;
54143;SDS011;40050;47.324;18.792;2022-12-29T17:59:01;57.68;;;31.04;;
54143;SDS011;40050;47.324;18.792;2022-12-29T18:01:02;66.88;;;33.19;;
54143;SDS011;40050;47.324;18.792;2022-12-29T18:03:07;67.44;;;33.77;;
54143;SDS011;40050;47.324;18.792;2022-12-29T18:05:23;62.98;;;32.10;;
54143;SDS011;40050;47.324;18.792;2022-12-29T18:09:16;61.57;;;31.72;;
54143;SDS011;40050;47.324;18.792;2022-12-29T18:11:22;56.51;;;30.46;;
54143;SDS011;40050;47.324;18.792;2022-12-29T18:13:24;55.00;;;29.29;;
54143;SDS011;40050;47.324;18.792;2022-12-29T18:15:24;57.20;;;30.25;;
54143;SDS011;40050;47.324;18.792;2022-12-29T18:17:24;54.46;;;29.08;;
54143;SDS011;40050;47.324;18.792;2022-12-29T18:19:26;54.76;;;29.47;;
54143;SDS011;40050;47.324;18.792;2022-12-29T18:21:44;62.77;;;30.95;;
54143;SDS011;40050;47.324;18.792;2022-12-29T18:26:14;63.81;;;32.63;;
54143;SDS011;40050;47.324;18.792;2022-12-29T18:27:34;58.23;;;30.96;;
54143;SDS011;40050;47.324;18.792;2022-12-29T18:29:35;57.80;;;30.95;;
54143;SDS011;40050;47.324;18.792;2022-12-29T18:31:43;65.92;;;31.52;;
54143;SDS011;40050;47.324;18.792;2022-12-29T18:33:52;61.68;;;31.01;;
54143;SDS011;40050;47.324;18.792;2022-12-29T18:36:16;57.28;;;30.41;;
54143;SDS011;40050;47.324;18.792;2022-12-29T18:38:18;62.42;;;31.76;;
54143;SDS011;40050;47.324;18.792;2022-12-29T18:40:24;62.69;;;32.15;;
54143;SDS011;40050;47.324;18.792;2022-12-29T18:42:26;58.83;;;30.38;;
54143;SDS011;40050;47.324;18.792;2022-12-29T18:44:32;59.93;;;30.76;;
54143;SDS011;40050;47.324;18.792;2022-12-29T18:48:54;60.65;;;32.20;;
54143;SDS011;40050;47.324;18.792;2022-12-29T18:51:17;122.49;;;51.92;;
54143;SDS011;40050;47.324;18.792;2022-12-29T19:00:24;160.66;;;71.93;;
54143;SDS011;40050;47.324;18.792;2022-12-29T19:04:43;78.30;;;38.29;;
54143;SDS011;40050;47.324;18.792;2022-12-29T19:06:44;70.02;;;35.66;;
54143;SDS011;40050;47.324;18.792;2022-12-29T19:08:46;63.01;;;33.71;;
54143;SDS011;40050;47.324;18.792;2022-12-29T19:10:47;66.56;;;34.78;;
54143;SDS011;40050;47.324;18.792;2022-12-29T19:12:48;65.25;;;34.18;;
54143;SDS011;40050;47.324;18.792;2022-12-29T19:14:49;63.48;;;34.11;;
54143;SDS011;40050;47.324;18.792;2022-12-29T19:16:53;58.63;;;31.51;;
54143;SDS011;40050;47.324;18.792;2022-12-29T19:18:55;61.56;;;31.33;;
54143;SDS011;40050;47.324;18.792;2022-12-29T19:21:00;57.45;;;29.27;;
54143;SDS011;40050;47.324;18.792;2022-12-29T19:23:02;59.93;;;30.90;;
54143;SDS011;40050;47.324;18.792;2022-12-29T19:25:03;56.07;;;30.32;;
54143;SDS011;40050;47.324;18.792;2022-12-29T19:27:05;58.27;;;31.28;;
54143;SDS011;40050;47.324;18.792;2022-12-29T19:29:07;59.38;;;30.61;;
54143;SDS011;40050;47.324;18.792;2022-12-29T19:31:07;59.43;;;31.10;;
54143;SDS011;40050;47.324;18.792;2022-12-29T19:33:08;62.78;;;32.96;;
54143;SDS011;40050;47.324;18.792;2022-12-29T19:35:09;56.89;;;29.46;;
54143;SDS011;40050;47.324;18.792;2022-12-29T19:37:10;67.28;;;32.18;;
54143;SDS011;40050;47.324;18.792;2022-12-29T19:39:11;57.72;;;30.62;;
54143;SDS011;40050;47.324;18.792;2022-12-29T19:41:13;65.99;;;32.47;;
54143;SDS011;40050;47.324;18.792;2022-12-29T19:43:14;65.39;;;32.76;;
54143;SDS011;40050;47.324;18.792;2022-12-29T19:45:15;61.51;;;31.32;;
54143;SDS011;40050;47.324;18.792;2022-12-29T19:47:16;56.79;;;29.96;;
54143;SDS011;40050;47.324;18.792;2022-12-29T19:49:17;54.93;;;28.51;;
54143;SDS011;40050;47.324;18.792;2022-12-29T19:51:18;56.91;;;28.88;;
54143;SDS011;40050;47.324;18.792;2022-12-29T19:53:19;56.72;;;30.24;;
54143;SDS011;40050;47.324;18.792;2022-12-29T19:55:20;60.25;;;31.38;;
54143;SDS011;40050;47.324;18.792;2022-12-29T19:57:21;58.90;;;31.28;;
54143;SDS011;40050;47.324;18.792;2022-12-29T19:59:22;55.75;;;30.58;;
54143;SDS011;40050;47.324;18.792;2022-12-29T20:01:24;60.90;;;31.15;;
54143;SDS011;40050;47.324;18.792;2022-12-29T20:03:25;61.21;;;30.85;;
54143;SDS011;40050;47.324;18.792;2022-12-29T20:05:26;81.50;;;40.38;;
54143;SDS011;40050;47.324;18.792;2022-12-29T20:07:26;71.04;;;35.72;;
54143;SDS011;40050;47.324;18.792;2022-12-29T20:09:27;75.51;;;36.70;;
54143;SDS011;40050;47.324;18.792;2022-12-29T20:11:36;56.14;;;30.36;;
54143;SDS011;40050;47.324;18.792;2022-12-29T20:13:37;59.99;;;31.12;;
54143;SDS011;40050;47.324;18.792;2022-12-29T20:15:41;61.87;;;31.59;;
54143;SDS011;40050;47.324;18.792;2022-12-29T20:17:40;60.32;;;31.17;;
54143;SDS011;40050;47.324;18.792;2022-12-29T20:19:42;59.32;;;29.89;;
54143;SDS011;40050;47.324;18.792;2022-12-29T20:21:44;63.18;;;31.72;;
54143;SDS011;40050;47.324;18.792;2022-12-29T20:23:45;59.52;;;29.72;;
54143;SDS011;40050;47.324;18.792;2022-12-29T20:25:52;59.24;;;31.12;;
54143;SDS011;40050;47.324;18.792;2022-12-29T20:27:46;59.94;;;31.44;;
54143;SDS011;40050;47.324;18.792;2022-12-29T20:29:47;57.82;;;30.28;;
54143;SDS011;40050;47.324;18.792;2022-12-29T20:31:51;58.99;;;30.17;;
54143;SDS011;40050;47.324;18.792;2022-12-29T20:33:52;57.57;;;30.56;;
54143;SDS011;40050;47.324;18.792;2022-12-29T20:35:52;62.14;;;33.46;;
54143;SDS011;40050;47.324;18.792;2022-12-29T20:37:53;57.44;;;30.74;;
54143;SDS011;40050;47.324;18.792;2022-12-29T20:39:54;59.09;;;31.22;;
54143;SDS011;40050;47.324;18.792;2022-12-29T20:41:55;59.33;;;32.36;;
54143;SDS011;40050;47.324;18.792;2022-12-29T20:43:56;64.50;;;31.10;;
54143;SDS011;40050;47.324;18.792;2022-12-29T20:45:57;69.86;;;33.92;;
54143;SDS011;40050;47.324;18.792;2022-12-29T20:47:58;64.23;;;32.01;;
54143;SDS011;40050;47.324;18.792;2022-12-29T20:49:59;63.24;;;32.59;;
54143;SDS011;40050;47.324;18.792;2022-12-29T20:52:01;68.99;;;35.30;;
54143;SDS011;40050;47.324;18.792;2022-12-29T20:54:02;69.55;;;35.60;;
54143;SDS011;40050;47.324;18.792;2022-12-29T20:56:05;66.58;;;34.62;;
54143;SDS011;40050;47.324;18.792;2022-12-29T20:58:04;58.55;;;32.98;;
54143;SDS011;40050;47.324;18.792;2022-12-29T21:00:05;53.37;;;29.50;;
54143;SDS011;40050;47.324;18.792;2022-12-29T21:02:08;52.13;;;29.11;;
54143;SDS011;40050;47.324;18.792;2022-12-29T21:04:19;55.40;;;29.13;;
54143;SDS011;40050;47.324;18.792;2022-12-29T21:06:22;54.66;;;29.04;;
54143;SDS011;40050;47.324;18.792;2022-12-29T21:08:23;49.11;;;26.67;;
54143;SDS011;40050;47.324;18.792;2022-12-29T21:10:24;49.11;;;26.30;;
54143;SDS011;40050;47.324;18.792;2022-12-29T21:12:25;48.38;;;26.86;;
54143;SDS011;40050;47.324;18.792;2022-12-29T21:14:26;45.95;;;25.40;;
54143;SDS011;40050;47.324;18.792;2022-12-29T21:16:28;49.72;;;26.18;;
54143;SDS011;40050;47.324;18.792;2022-12-29T21:18:29;47.02;;;25.69;;
54143;SDS011;40050;47.324;18.792;2022-12-29T21:20:30;49.57;;;26.65;;
54143;SDS011;40050;47.324;18.792;2022-12-29T21:22:31;49.17;;;26.66;;
54143;SDS011;40050;47.324;18.792;2022-12-29T21:24:32;56.44;;;29.76;;
54143;SDS011;40050;47.324;18.792;2022-12-29T21:26:36;64.21;;;31.98;;
54143;SDS011;40050;47.324;18.792;2022-12-29T21:28:38;60.97;;;32.40;;
54143;SDS011;40050;47.324;18.792;2022-12-29T21:30:39;55.54;;;30.93;;
54143;SDS011;40050;47.324;18.792;2022-12-29T21:32:40;54.81;;;28.48;;
54143;SDS011;40050;47.324;18.792;2022-12-29T21:34:41;53.51;;;29.05;;
54143;SDS011;40050;47.324;18.792;2022-12-29T21:36:42;58.46;;;30.75;;
54143;SDS011;40050;47.324;18.792;2022-12-29T21:38:43;52.16;;;29.56;;
54143;SDS011;40050;47.324;18.792;2022-12-29T21:40:44;54.11;;;29.87;;
54143;SDS011;40050;47.324;18.792;2022-12-29T21:42:45;54.07;;;29.65;;
54143;SDS011;40050;47.324;18.792;2022-12-29T21:44:46;53.89;;;28.45;;
54143;SDS011;40050;47.324;18.792;2022-12-29T21:46:46;54.37;;;28.23;;
54143;SDS011;40050;47.324;18.792;2022-12-29T21:48:47;54.64;;;29.35;;
54143;SDS011;40050;47.324;18.792;2022-12-29T21:50:50;53.56;;;29.46;;
54143;SDS011;40050;47.324;18.792;2022-12-29T21:52:49;55.00;;;28.91;;
54143;SDS011;40050;47.324;18.792;2022-12-29T21:54:52;53.43;;;28.74;;
54143;SDS011;40050;47.324;18.792;2022-12-29T21:56:53;51.06;;;27.68;;
54143;SDS011;40050;47.324;18.792;2022-12-29T21:58:54;53.91;;;28.94;;
54143;SDS011;40050;47.324;18.792;2022-12-29T22:00:55;48.19;;;26.24;;
54143;SDS011;40050;47.324;18.792;2022-12-29T22:02:56;50.09;;;27.02;;
54143;SDS011;40050;47.324;18.792;2022-12-29T22:04:57;49.05;;;26.52;;
54143;SDS011;40050;47.324;18.792;2022-12-29T22:06:59;47.56;;;25.65;;
54143;SDS011;40050;47.324;18.792;2022-12-29T22:09:00;48.69;;;26.40;;
54143;SDS011;40050;47.324;18.792;2022-12-29T22:11:04;47.53;;;26.80;;
54143;SDS011;40050;47.324;18.792;2022-12-29T22:13:03;48.09;;;26.43;;
54143;SDS011;40050;47.324;18.792;2022-12-29T22:15:04;45.74;;;25.73;;
54143;SDS011;40050;47.324;18.792;2022-12-29T22:17:05;46.11;;;25.57;;
54143;SDS011;40050;47.324;18.792;2022-12-29T22:19:06;47.16;;;25.74;;
54143;SDS011;40050;47.324;18.792;2022-12-29T22:21:07;46.70;;;25.37;;
54143;SDS011;40050;47.324;18.792;2022-12-29T22:23:08;50.42;;;26.61;;
54143;SDS011;40050;47.324;18.792;2022-12-29T22:25:09;48.99;;;26.22;;
54143;SDS011;40050;47.324;18.792;2022-12-29T22:27:10;49.18;;;27.07;;
54143;SDS011;40050;47.324;18.792;2022-12-29T22:29:12;54.87;;;27.73;;
54143;SDS011;40050;47.324;18.792;2022-12-29T22:31:23;59.52;;;31.95;;
54143;SDS011;40050;47.324;18.792;2022-12-29T22:33:14;82.61;;;42.32;;
54143;SDS011;40050;47.324;18.792;2022-12-29T22:35:17;67.08;;;35.48;;
54143;SDS011;40050;47.324;18.792;2022-12-29T22:37:17;61.97;;;31.95;;
54143;SDS011;40050;47.324;18.792;2022-12-29T22:39:19;64.12;;;33.31;;
54143;SDS011;40050;47.324;18.792;2022-12-29T22:41:20;67.47;;;35.11;;
54143;SDS011;40050;47.324;18.792;2022-12-29T22:43:21;85.22;;;39.71;;
54143;SDS011;40050;47.324;18.792;2022-12-29T22:45:22;78.57;;;37.29;;
54143;SDS011;40050;47.324;18.792;2022-12-29T22:47:23;58.48;;;31.52;;
54143;SDS011;40050;47.324;18.792;2022-12-29T22:49:23;53.61;;;28.83;;
54143;SDS011;40050;47.324;18.792;2022-12-29T22:51:25;50.69;;;28.17;;
54143;SDS011;40050;47.324;18.792;2022-12-29T22:53:26;51.65;;;27.78;;
54143;SDS011;40050;47.324;18.792;2022-12-29T22:55:26;47.56;;;27.21;;
54143;SDS011;40050;47.324;18.792;2022-12-29T22:57:27;48.16;;;26.82;;
54143;SDS011;40050;47.324;18.792;2022-12-29T22:59:28;47.25;;;26.25;;
54143;SDS011;40050;47.324;18.792;2022-12-29T23:01:29;45.41;;;25.67;;
54143;SDS011;40050;47.324;18.792;2022-12-29T23:03:30;47.99;;;26.05;;
54143;SDS011;40050;47.324;18.792;2022-12-29T23:05:31;47.67;;;25.96;;
54143;SDS011;40050;47.324;18.792;2022-12-29T23:07:33;45.00;;;26.07;;
54143;SDS011;40050;47.324;18.792;2022-12-29T23:09:33;43.69;;;25.58;;
54143;SDS011;40050;47.324;18.792;2022-12-29T23:11:38;46.98;;;25.77;;
54143;SDS011;40050;47.324;18.792;2022-12-29T23:13:39;46.19;;;26.25;;
54143;SDS011;40050;47.324;18.792;2022-12-29T23:15:40;47.36;;;25.49;;
54143;SDS011;40050;47.324;18.792;2022-12-29T23:17:41;44.49;;;25.32;;
54143;SDS011;40050;47.324;18.792;2022-12-29T23:19:43;42.38;;;24.57;;
54143;SDS011;40050;47.324;18.792;2022-12-29T23:21:45;46.29;;;25.35;;
54143;SDS011;40050;47.324;18.792;2022-12-29T23:23:47;46.53;;;25.56;;
54143;SDS011;40050;47.324;18.792;2022-12-29T23:25:48;43.51;;;25.07;;
54143;SDS011;40050;47.324;18.792;2022-12-29T23:27:49;49.55;;;26.71;;
54143;SDS011;40050;47.324;18.792;2022-12-29T23:29:50;46.04;;;25.84;;
54143;SDS011;40050;47.324;18.792;2022-12-29T23:31:51;46.87;;;26.23;;
54143;SDS011;40050;47.324;18.792;2022-12-29T23:33:52;47.39;;;26.33;;
54143;SDS011;40050;47.324;18.792;2022-12-29T23:35:53;45.16;;;25.93;;
54143;SDS011;40050;47.324;18.792;2022-12-29T23:37:54;46.36;;;25.45;;
54143;SDS011;40050;47.324;18.792;2022-12-29T23:39:55;45.97;;;26.71;;
54143;SDS011;40050;47.324;18.792;2022-12-29T23:41:56;47.11;;;25.84;;
54143;SDS011;40050;47.324;18.792;2022-12-29T23:43:57;46.03;;;26.32;;
54143;SDS011;40050;47.324;18.792;2022-12-29T23:46:06;48.06;;;26.13;;
54143;SDS011;40050;47.324;18.792;2022-12-29T23:48:00;45.70;;;25.74;;
54143;SDS011;40050;47.324;18.792;2022-12-29T23:50:01;44.57;;;26.21;;
54143;SDS011;40050;47.324;18.792;2022-12-29T23:52:02;49.50;;;26.41;;
54143;SDS011;40050;47.324;18.792;2022-12-29T23:54:04;50.07;;;27.94;;
54143;SDS011;40050;47.324;18.792;2022-12-29T23:56:05;49.29;;;27.24;;
54143;SDS011;40050;47.324;18.792;2022-12-29T23:58:06;49.25;;;27.62;;
